Time;durP1;ratioP1;P1;durP2;ratioP2;P2;SDS_P1;SDS_P2;PMS_P1;PMS_P2;Temp;Humidity;BMP_temperature;BMP_pressure;BME280_temperature;BME280_humidity;BME280_pressure;Samples;Min_cycle;Max_cycle;Signal;HPM_P1;HPM_P2
2022/04/26 03:39:36;;;;;;;8.00;7.20;;;10.80;92.50;;;13.33;62.22;98239.47;4943139;28;124880;-73
2022/04/26 04:23:22;;;;;;;6.40;5.60;;;12.80;93.90;;;13.34;62.77;98263.28;6040751;23;98860;31
2022/04/26 04:29:52;;;;;;;6.33;5.73;;;12.70;93.90;;;13.28;62.88;98282.09;4884828;28;125090;-74
2022/04/26 04:36:01;;;;;;;5.27;4.50;;;12.70;93.90;;;13.24;62.87;98279.19;4884592;28;116260;-77
2022/04/26 04:42:09;;;;;;;6.17;5.57;;;11.10;93.20;;;13.24;62.80;98281.97;4884838;28;125114;-77
2022/04/26 05:10:13;;;;;;;6.90;6.20;;;12.30;93.70;;;13.37;62.32;98268.94;4941907;28;115325;-77
2022/04/26 05:16:23;;;;;;;7.73;6.70;;;12.30;93.70;;;13.40;62.47;98278.53;4941381;28;125116;-78
2022/04/26 05:24:53;;;;;;;7.20;6.50;;;11.20;93.20;;;13.38;62.63;98284.44;4941641;28;115275;-75
2022/04/26 05:29:01;;;;;;;7.30;6.40;;;12.80;93.80;;;13.36;62.50;98277.63;4941379;28;125097;-76
2022/04/26 05:35:12;;;;;;;6.67;5.97;;;11.40;93.30;;;13.36;62.67;98292.28;4941270;28;116255;-75
2022/04/26 05:41:24;;;;;;;10.27;7.20;;;12.80;94.10;;;13.36;62.92;98288.72;4941027;28;125234;-91
2022/04/26 06:05:47;;;;;;;7.47;6.00;;;12.80;94.30;;;13.53;62.82;98301.56;4960203;28;124827;-88
2022/04/26 06:08:33;;;;;;;8.17;6.43;;;12.80;94.40;;;13.54;62.68;98317.91;4960117;28;114859;-78
2022/04/26 06:11:20;;;;;;;7.20;6.50;;;12.80;94.20;;;13.54;62.74;98311.50;4956852;28;114889;-90
2022/04/26 06:13:46;;;;;;;6.70;6.07;;;12.90;94.30;;;13.58;62.81;98313.25;4944067;28;124491;-89
2022/04/26 06:16:14;;;;;;;9.00;7.27;;;12.90;94.40;;;13.57;62.71;98314.44;4927628;28;123122;-90
2022/04/26 06:18:42;;;;;;;7.90;6.20;;;12.90;94.50;;;13.61;62.55;98314.53;4942843;28;113275;-90
2022/04/26 06:21:11;;;;;;;7.57;6.40;;;13.00;94.40;;;13.65;62.94;98319.06;4938363;28;113506;-90
2022/04/26 06:23:37;;;;;;;7.13;5.93;;;13.00;94.40;;;13.69;62.59;98317.22;4943263;28;123762;-89
2022/04/26 06:26:04;;;;;;;6.30;5.70;;;13.00;94.40;;;13.76;62.53;98326.97;4934418;28;123657;-86
2022/04/26 06:29:09;;;;;;;6.80;6.10;;;13.10;94.40;;;13.74;62.40;98318.16;4955414;28;113781;-92
2022/04/26 06:31:56;;;;;;;6.50;5.80;;;13.10;94.20;;;13.72;62.00;98323.25;4940443;28;114704;-90
2022/04/26 06:34:23;;;;;;;7.10;6.40;;;11.70;93.50;;;13.72;62.25;98328.78;4942725;28;124751;-88
2022/04/26 06:36:50;;;;;;;6.63;5.93;;;13.00;94.20;;;13.70;62.41;98329.97;4951328;28;124122;-89
2022/04/26 06:39:18;;;;;;;6.20;5.57;;;13.80;94.40;;;13.73;62.21;98327.63;4953997;28;113756;-87
2022/04/26 06:41:44;;;;;;;6.30;5.33;;;13.10;94.10;;;13.69;61.99;98325.53;4968999;28;113331;-91
2022/04/26 06:44:12;;;;;;;5.67;5.07;;;13.10;93.90;;;13.67;62.00;98322.31;4943056;28;123655;-90
2022/04/26 06:46:39;;;;;;;5.03;4.53;;;13.10;93.90;;;13.67;61.92;98333.44;4930415;28;122543;-88
2022/04/26 06:49:45;;;;;;;6.07;5.47;;;13.10;93.90;;;13.63;61.83;98332.47;4947936;28;114520;-91
2022/04/26 06:52:12;;;;;;;5.40;4.70;;;13.10;93.70;;;13.58;61.84;98327.16;4951774;28;113822;-92
2022/04/26 06:54:38;;;;;;;6.03;5.20;;;13.00;93.70;;;13.57;61.85;98321.97;4941099;28;123808;-91
2022/04/26 06:57:06;;;;;;;5.90;4.97;;;13.00;93.60;;;13.58;61.98;98318.81;4947518;28;121947;-91
2022/04/26 07:00:10;;;;;;;6.30;5.40;;;13.00;93.60;;;13.57;61.88;98333.88;4949909;28;114179;-91
2022/04/26 07:03:15;;;;;;;5.80;5.20;;;13.00;93.60;;;13.55;61.82;98333.38;4910511;28;113660;-90
2022/04/26 07:06:01;;;;;;;6.00;5.43;;;13.00;93.60;;;13.52;61.92;98331.31;4896577;28;123977;-90
2022/04/26 07:08:27;;;;;;;5.40;4.90;;;12.30;93.20;;;13.47;61.84;98340.66;4903720;28;124262;-90
2022/04/26 07:11:32;;;;;;;6.10;5.20;;;13.00;93.50;;;13.41;61.76;98341.22;4901275;28;113565;-90
2022/04/26 07:14:00;;;;;;;5.30;4.80;;;12.90;93.40;;;13.36;61.73;98333.91;4904236;28;113889;-91
2022/04/26 07:17:05;;;;;;;6.70;6.00;;;12.90;93.50;;;13.33;62.01;98329.06;4912174;28;124123;-90
2022/04/26 07:19:52;;;;;;;5.57;5.07;;;12.90;93.40;;;13.30;61.67;98323.38;4911438;28;123324;-90
2022/04/26 07:22:18;;;;;;;5.03;4.47;;;12.80;93.40;;;13.29;62.00;98321.75;4887304;28;113166;-92
2022/04/26 07:24:45;;;;;;;4.47;4.07;;;12.80;93.40;;;13.32;61.73;98321.06;4900081;28;114600;-91
2022/04/26 07:30:53;;;;;;;4.33;3.93;;;12.80;93.40;;;13.43;61.55;98308.38;4917770;28;124016;-90
2022/04/26 07:37:02;;;;;;;3.60;3.30;;;12.90;93.40;;;13.56;61.59;98312.00;4918592;28;114749;-91
2022/04/26 07:39:35;;;;;;;3.70;3.40;;;13.00;93.50;;;13.63;61.38;98312.25;4913102;28;122675;-91
2022/04/26 07:42:04;;;;;;;3.33;3.03;;;13.00;93.40;;;13.66;61.27;98323.47;4914773;28;123474;-92
2022/04/26 07:44:52;;;;;;;6.60;4.90;;;13.10;93.40;;;13.66;61.05;98329.00;4910924;28;112562;-91
2022/04/26 07:47:22;;;;;;;5.27;4.77;;;13.10;93.20;;;13.61;61.16;98323.69;4919754;28;113528;-90
2022/04/26 07:49:50;;;;;;;4.80;4.40;;;13.10;93.10;;;13.59;60.94;98325.97;4908282;28;120650;-91
2022/04/26 07:52:17;;;;;;;3.80;3.50;;;13.10;93.10;;;13.61;60.89;98323.69;4894627;28;123320;-90
2022/04/26 07:55:04;;;;;;;5.20;4.70;;;13.10;93.00;;;13.63;60.69;98329.69;4905542;28;113363;-91
2022/04/26 07:57:33;;;;;;;3.90;3.50;;;13.10;93.00;;;13.65;60.97;98329.38;4909728;28;113058;-92
2022/04/26 08:00:19;;;;;;;4.37;3.83;;;13.10;93.00;;;13.66;60.76;98331.78;4916416;28;122427;-91
2022/04/26 08:06:46;;;;;;;4.50;4.10;;;13.10;92.90;;;13.63;60.89;98357.47;4902309;28;114782;-90
2022/04/26 08:09:13;;;;;;;5.40;4.90;;;13.10;92.80;;;13.60;60.48;98372.03;4902287;28;113437;-89
2022/04/26 08:12:17;;;;;;;6.27;5.00;;;13.10;92.70;;;13.54;60.45;98372.56;4905124;28;123478;-92
2022/04/26 08:15:04;;;;;;;4.93;3.83;;;12.90;92.50;;;13.52;60.60;98370.16;4909228;28;122896;-90
2022/04/26 08:17:33;;;;;;;5.20;4.70;;;13.10;92.60;;;13.50;60.44;98369.69;4913119;28;115181;-90
2022/04/26 08:20:38;;;;;;;5.97;5.37;;;13.00;92.50;;;13.44;60.06;98388.50;4896360;28;114784;-91
2022/04/26 08:29:18;;;;;;;5.80;5.23;;;12.90;92.20;;;13.25;60.29;98397.31;4913841;28;115307;-89
2022/04/26 08:31:45;;;;;;;6.20;5.60;;;12.90;92.20;;;13.29;60.18;98393.88;4911317;28;113349;-91
2022/04/26 08:34:12;;;;;;;5.60;4.93;;;12.80;92.20;;;13.29;60.07;98394.69;4909689;28;123169;-90
2022/04/26 08:36:39;;;;;;;5.10;4.60;;;12.90;92.20;;;13.31;60.27;98397.94;4929255;28;122654;-91
2022/04/26 08:39:07;;;;;;;4.70;4.30;;;13.50;92.40;;;13.37;59.96;98396.56;4917734;28;113669;-90
2022/04/26 08:41:34;;;;;;;6.80;4.67;;;12.90;92.20;;;13.43;59.69;98405.50;4915682;28;114606;-90
2022/04/26 08:44:10;;;;;;;4.47;4.07;;;13.00;92.40;;;13.48;59.82;98406.09;4890866;28;123129;-89
2022/04/26 08:52:49;;;;;;;5.47;4.87;;;13.10;92.00;;;13.65;59.48;98407.09;4911519;28;114610;-90
2022/04/26 08:55:55;;;;;;;5.67;5.17;;;13.10;92.00;;;13.68;59.13;98411.97;4894046;28;124702;-91
2022/04/26 08:58:31;;;;;;;5.63;4.83;;;13.20;91.80;;;13.72;59.04;98414.84;4889820;28;123283;-91
2022/04/26 09:01:37;;;;;;;6.23;5.63;;;13.20;91.80;;;13.77;58.24;98415.44;4905046;28;113985;-91
2022/04/26 09:04:24;;;;;;;5.87;5.30;;;13.20;91.50;;;13.79;58.46;98426.22;4875134;28;112194;-91
2022/04/26 09:07:33;;;;;;;6.00;5.50;;;13.30;91.40;;;13.79;58.28;98423.44;4875112;28;124492;-90
2022/04/26 09:10:19;;;;;;;5.80;5.00;;;13.30;91.20;;;13.82;58.34;98423.56;4868178;28;122717;-92
2022/04/26 09:13:15;;;;;;;7.23;5.77;;;13.30;91.20;;;13.81;58.17;98421.13;4881289;28;115230;-90
2022/04/26 09:15:54;;;;;;;6.13;5.53;;;13.30;91.10;;;13.82;57.75;98433.88;4867410;28;115137;-91
2022/04/26 09:18:53;;;;;;;6.23;5.57;;;13.30;90.90;;;13.82;57.54;98437.44;4878846;28;124427;-89
2022/04/26 09:21:53;;;;;;;5.67;5.07;;;13.40;90.80;;;13.86;57.68;98443.94;4882277;28;124357;-91
2022/04/26 09:24:20;;;;;;;5.80;5.20;;;13.40;90.80;;;13.90;57.35;98436.53;4881366;28;114200;-89
2022/04/26 09:26:48;;;;;;;8.23;5.30;;;13.40;90.70;;;13.98;57.33;98443.16;4866018;28;113739;-91
2022/04/26 09:29:45;;;;;;;6.03;4.97;;;13.40;90.60;;;14.01;56.63;98439.69;4869264;28;123831;-89
2022/04/26 09:32:14;;;;;;;5.60;5.00;;;13.50;90.40;;;14.06;56.78;98438.66;4881398;28;122910;-89
2022/04/26 09:34:40;;;;;;;5.33;4.73;;;13.50;90.30;;;14.12;56.46;98437.28;4879787;28;114337;-89
2022/04/26 09:37:28;;;;;;;5.30;4.70;;;13.60;90.30;;;14.20;56.33;98439.13;4881473;28;113565;-91
2022/04/26 09:40:05;;;;;;;4.27;3.87;;;13.70;90.20;;;14.29;55.83;98441.81;4882850;28;122319;-90
2022/04/26 09:42:34;;;;;;;3.97;3.57;;;13.70;90.00;;;14.36;55.61;98433.72;4939666;28;121746;-90
2022/04/26 09:45:09;;;;;;;4.20;3.80;;;13.80;89.80;;;14.47;55.30;98459.88;4937852;28;112372;-91
2022/04/26 09:47:45;;;;;;;4.80;4.40;;;13.90;89.40;;;14.50;54.59;98450.84;4941350;28;112341;-89
2022/04/26 09:50:30;;;;;;;5.60;4.30;;;13.90;88.50;;;14.52;54.29;98445.78;4931557;28;123618;-90
2022/04/26 09:52:57;;;;;;;6.33;4.70;;;14.00;88.00;;;14.54;53.77;98443.50;4934782;28;123991;-90
2022/04/26 09:55:24;;;;;;;5.40;4.90;;;14.10;87.20;;;14.56;53.44;98435.63;4938607;28;113630;-90
2022/04/26 10:01:46;;;;;;;5.83;4.17;;;14.10;86.20;;;14.68;52.59;98442.31;4904449;28;124458;-91
2022/04/26 10:04:31;;;;;;;4.70;4.20;;;14.10;85.90;;;14.76;52.14;98444.97;4892913;28;123925;-90
2022/04/26 10:07:11;;;;;;;5.30;4.50;;;14.20;85.20;;;14.81;51.83;98441.16;4901058;28;115631;-90
2022/04/26 10:09:58;;;;;;;6.13;4.27;;;14.20;84.60;;;14.80;51.72;98439.50;4898871;28;114789;-90
2022/04/26 10:12:26;;;;;;;6.67;4.73;;;15.20;84.90;;;14.82;50.96;98436.41;4899272;28;124326;-90
2022/04/26 10:14:54;;;;;;;4.87;3.83;;;15.40;84.40;;;14.82;50.72;98448.31;4910427;28;123596;-93
2022/04/26 10:17:21;;;;;;;4.03;3.63;;;14.30;82.90;;;14.84;50.45;98446.00;4868928;28;113612;-90
2022/04/26 10:19:48;;;;;;;7.63;4.77;;;14.40;82.60;;;14.86;49.70;98440.91;4879073;28;113018;-89
2022/04/26 10:22:56;;;;;;;5.30;4.13;;;14.40;81.50;;;14.88;49.69;98435.00;4909757;28;123636;-91
2022/04/26 10:25:27;;;;;;;8.00;3.80;;;14.40;81.30;;;14.89;49.23;98437.44;4914346;28;122733;-92
2022/04/26 10:28:27;;;;;;;4.57;3.77;;;14.40;80.60;;;14.94;49.66;98433.63;4893185;28;114547;-93
2022/04/26 10:30:57;;;;;;;6.37;4.40;;;14.50;80.90;;;14.99;48.95;98431.41;4930220;28;113422;-91
2022/04/26 10:33:40;;;;;;;4.57;3.90;;;14.50;80.20;;;15.08;48.63;98436.00;4893973;28;121967;-90
2022/04/26 10:36:30;;;;;;;4.00;3.57;;;15.50;80.70;;;15.14;48.06;98421.50;4903124;28;123081;-89
2022/04/26 10:39:09;;;;;;;4.10;3.53;;;14.60;79.00;;;15.23;47.87;98426.91;4913076;28;113723;-89
2022/04/26 10:41:42;;;;;;;5.77;3.40;;;14.70;78.80;;;15.30;47.41;98420.75;4918724;28;113937;-91
2022/04/26 10:44:21;;;;;;;5.10;3.67;;;14.70;78.10;;;15.35;46.85;98415.75;4915912;28;124720;-90
2022/04/26 10:46:58;;;;;;;5.30;3.50;;;14.80;77.40;;;15.43;46.96;98434.28;4916897;28;123816;-90
2022/04/26 10:49:45;;;;;;;5.03;3.70;;;14.90;77.20;;;15.46;45.98;98416.84;4920890;28;113640;-93
2022/04/26 10:52:54;;;;;;;4.70;3.70;;;15.00;75.60;;;15.48;45.92;98421.28;4915421;28;112790;-93
2022/04/26 10:55:39;;;;;;;3.60;3.20;;;15.00;75.50;;;15.52;45.90;98430.53;4927871;28;123182;-94
2022/04/26 10:58:53;;;;;;;5.07;3.50;;;15.10;75.40;;;15.51;45.75;98423.34;4938160;28;123906;-94
2022/04/26 11:01:28;;;;;;;4.77;3.13;;;15.10;74.70;;;15.54;45.75;98436.56;4912707;28;115822;-93
2022/04/26 11:04:32;;;;;;;4.63;2.80;;;15.10;74.80;;;15.61;45.72;98429.22;4943525;28;115569;-94
2022/04/26 11:07:20;;;;;;;3.83;2.40;;;15.20;75.00;;;15.74;45.42;98438.34;4943986;28;123370;-91
2022/04/26 11:09:50;;;;;;;4.00;3.13;;;15.30;74.60;;;15.80;44.56;98436.94;4945289;28;123169;-92
2022/04/26 11:12:24;;;;;;;3.70;2.93;;;15.30;73.20;;;15.83;43.97;98427.88;4955835;28;114455;-94
2022/04/26 11:14:56;;;;;;;4.23;3.37;;;15.30;72.70;;;15.83;43.36;98435.41;4949104;28;113146;-94
2022/04/26 11:17:44;;;;;;;4.00;2.97;;;15.30;71.70;;;15.82;43.21;98462.44;4941991;28;124118;-91
2022/04/26 11:20:24;;;;;;;4.63;3.40;;;15.40;71.00;;;15.77;44.10;98470.25;4931169;28;123127;-90
2022/04/26 11:22:58;;;;;;;10.10;4.90;;;15.30;71.70;;;15.66;45.07;98475.47;4940981;28;114021;-91
2022/04/26 11:28:52;;;;;;;6.57;5.83;;;15.20;74.30;;;15.44;46.68;98474.88;4929110;28;124130;-90
2022/04/26 11:31:19;;;;;;;6.10;5.50;;;15.10;75.20;;;15.35;47.07;98479.78;4934834;28;123321;-92
2022/04/26 11:34:04;;;;;;;5.80;5.20;;;15.00;75.60;;;15.29;47.39;98495.09;4939056;28;114584;-91
2022/04/26 11:36:37;;;;;;;6.70;5.60;;;15.00;76.00;;;15.27;47.22;98485.47;4934755;28;113748;-91
2022/04/26 11:39:04;;;;;;;7.20;5.40;;;14.90;76.20;;;15.29;47.45;98520.16;4943284;28;124001;-90
2022/04/26 11:41:31;;;;;;;9.63;5.00;;;15.10;76.70;;;15.31;47.19;98501.13;4936863;28;123960;-92
2022/04/26 11:44:16;;;;;;;8.90;6.03;;;14.90;76.30;;;15.29;47.08;98506.25;4944304;28;113644;-91
2022/04/26 11:47:04;;;;;;;8.47;6.03;;;14.90;75.90;;;15.20;47.00;98500.78;4954587;28;112008;-91
2022/04/26 11:49:41;;;;;;;10.47;5.40;;;14.80;75.80;;;15.14;46.98;98498.59;4950722;28;123712;-92
2022/04/26 11:52:45;;;;;;;4.63;4.10;;;14.80;75.40;;;15.04;47.17;98499.88;4943817;28;122831;-92
2022/04/26 11:55:30;;;;;;;5.27;4.77;;;14.70;75.70;;;15.00;47.31;98494.22;4939671;28;116336;-92
2022/04/26 11:58:33;;;;;;;6.80;4.30;;;15.20;76.40;;;14.95;47.39;98511.13;4943521;28;114145;-92
2022/04/26 12:01:15;;;;;;;4.30;3.90;;;14.60;76.10;;;14.96;47.58;98512.78;4903902;28;123088;-91
2022/04/26 12:07:23;;;;;;;4.10;3.70;;;14.60;76.20;;;15.11;47.37;98516.00;4906824;28;115251;-92
2022/04/26 12:10:28;;;;;;;4.90;4.03;;;14.60;76.20;;;15.20;47.08;98503.56;4888172;28;113801;-90
2022/04/26 12:13:03;;;;;;;4.43;3.77;;;14.70;75.90;;;15.28;46.92;98510.16;4903037;28;124701;-91
2022/04/26 12:15:48;;;;;;;3.83;3.53;;;14.70;76.00;;;15.34;46.52;98508.78;4892974;28;124345;-91
2022/04/26 12:18:16;;;;;;;4.03;3.40;;;14.90;75.30;;;15.35;46.73;98515.97;4890568;28;113749;-90
2022/04/26 12:21:03;;;;;;;3.40;3.10;;;14.90;75.10;;;15.34;46.20;98519.91;4904808;28;113605;-91
2022/04/26 12:23:31;;;;;;;5.90;4.20;;;14.90;74.90;;;15.31;45.85;98526.16;4901055;28;121939;-90
2022/04/26 12:26:07;;;;;;;4.50;4.03;;;14.90;74.20;;;15.29;46.14;98530.47;4895511;28;123983;-90
2022/04/26 12:28:46;;;;;;;5.83;3.97;;;14.90;74.50;;;15.30;45.96;98530.13;4908167;28;113273;-91
2022/04/26 12:31:28;;;;;;;6.33;4.33;;;14.90;74.30;;;15.27;46.08;98541.97;4891326;28;114049;-89
2022/04/26 12:34:12;;;;;;;4.43;3.97;;;14.90;74.30;;;15.24;46.29;98534.31;4890761;28;123944;-89
2022/04/26 12:37:23;;;;;;;4.37;3.37;;;14.80;74.50;;;15.21;46.51;98529.44;4901282;28;122727;-91
2022/04/26 12:39:58;;;;;;;4.70;4.20;;;14.80;74.90;;;15.21;46.85;98554.50;4936665;28;113869;-91
2022/04/26 12:43:11;;;;;;;8.10;4.50;;;14.80;75.30;;;15.14;45.33;98559.81;4927980;28;113381;-91
2022/04/26 12:45:37;;;;;;;7.57;3.60;;;14.70;73.60;;;14.95;45.00;98563.19;4948748;28;122248;-91
2022/04/26 12:54:58;;;;;;;3.30;2.57;;;14.20;71.90;;;14.17;46.02;98572.41;4940570;28;115115;-91
2022/04/26 12:57:48;;;;;;;3.93;2.77;;;14.00;72.60;;;14.04;46.60;98588.19;4928276;28;122033;-90
2022/04/26 13:00:42;;;;;;;4.37;2.63;;;13.80;73.40;;;13.91;47.38;98592.88;4946982;28;123254;-91
2022/04/26 13:03:18;;;;;;;2.87;2.37;;;13.70;74.10;;;13.79;47.91;98601.97;4940665;28;114182;-90
2022/04/26 13:06:43;;;;;;;2.33;2.10;;;13.60;74.80;;;13.64;48.69;98611.69;4943739;28;113634;-90
2022/04/26 13:12:51;;;;;;;1.90;1.80;;;13.30;76.10;;;13.57;49.19;98600.34;4942242;28;124786;-89
2022/04/26 13:15:41;;;;;;;2.80;2.20;;;13.30;76.80;;;13.61;49.25;98600.47;4944893;28;114473;-91
2022/04/26 13:18:10;;;;;;;2.63;1.93;;;13.20;77.00;;;13.65;49.48;98595.88;4946707;28;114004;-90
2022/04/26 13:20:38;;;;;;;3.30;2.30;;;13.30;77.30;;;13.72;49.47;98600.88;4927001;28;125146;-90
2022/04/26 13:27:24;;;;;;;8.73;2.30;;;13.30;78.00;;;13.95;49.72;98593.03;4953782;28;115309;-89
2022/04/26 13:30:49;;;;;;;2.17;1.97;;;13.40;78.50;;;14.26;49.85;98590.59;4931516;28;113885;-91
2022/04/26 13:33:37;;;;;;;2.57;2.20;;;13.60;79.20;;;14.51;48.80;98591.50;4944839;28;122691;-92
2022/04/26 13:36:05;;;;;;;2.37;2.17;;;13.80;78.30;;;14.67;48.19;98591.69;4866882;28;123110;-91
2022/04/26 13:38:33;;;;;;;2.40;1.80;;;14.00;77.70;;;14.75;47.61;98587.19;4840986;28;114456;-90
2022/04/26 13:41:00;;;;;;;3.03;2.53;;;14.10;77.00;;;14.84;47.17;98584.28;4837945;28;113052;-90
2022/04/26 13:43:26;;;;;;;2.00;1.80;;;14.20;76.20;;;14.95;47.11;98577.91;4843140;29;124484;-91
2022/04/26 13:46:30;;;;;;;2.13;1.93;;;14.30;76.10;;;15.16;46.84;98574.22;4855373;28;123652;-92
2022/04/26 13:49:15;;;;;;;1.60;1.50;;;14.50;75.80;;;15.40;46.54;98574.19;4840591;28;114897;-89
2022/04/26 13:52:04;;;;;;;1.87;1.70;;;14.70;75.90;;;15.63;46.05;98573.66;4849104;28;113973;-90
2022/04/26 13:54:34;;;;;;;1.83;1.60;;;14.90;75.40;;;15.76;45.89;98568.91;4856426;28;124178;-91
2022/04/26 13:57:05;;;;;;;2.40;2.17;;;16.60;76.70;;;15.85;45.14;98584.34;4849298;29;123822;-91
2022/04/26 13:59:34;;;;;;;2.30;2.10;;;15.20;73.80;;;15.83;44.33;98592.22;4860343;29;113842;-90
2022/04/26 14:02:00;;;;;;;1.93;1.70;;;15.30;72.30;;;15.79;43.88;98582.94;4837249;29;114051;-91
2022/04/26 14:04:27;;;;;;;3.80;2.07;;;15.30;71.60;;;15.87;43.52;98587.56;4838877;29;123684;-91
2022/04/26 14:07:02;;;;;;;2.60;2.40;;;15.40;71.30;;;15.98;43.60;98575.91;4857052;29;123896;-91
2022/04/26 14:09:29;;;;;;;2.00;1.90;;;15.40;71.00;;;16.06;43.16;98578.56;4856884;29;113712;-92
2022/04/26 14:11:55;;;;;;;2.20;2.00;;;15.50;70.10;;;16.07;43.03;98579.38;4855621;29;113003;-89
2022/04/26 14:24:17;;;;;;;3.30;2.30;;;15.60;69.60;;;16.03;42.54;98572.88;4944871;28;114250;-92
2022/04/26 14:26:43;;;;;;;2.40;2.20;;;15.60;69.50;;;16.05;42.96;98584.50;4942798;28;123401;-92
2022/04/26 14:29:10;;;;;;;2.67;2.30;;;15.60;69.50;;;16.09;42.91;98574.25;4935409;28;123044;-91
2022/04/26 14:32:14;;;;;;;2.90;2.17;;;15.70;69.80;;;16.15;42.79;98577.59;4932853;28;113981;-91
2022/04/26 14:34:42;;;;;;;2.37;2.00;;;15.70;69.00;;;16.19;42.68;98579.31;4931059;28;113675;-91
2022/04/26 14:37:10;;;;;;;2.27;2.07;;;15.70;69.10;;;16.12;42.55;98584.72;4928346;28;123516;-92
2022/04/26 14:39:38;;;;;;;2.60;2.33;;;15.70;68.70;;;16.07;42.78;98582.19;4932081;28;123006;-91
2022/04/26 14:42:24;;;;;;;2.07;1.87;;;15.70;69.10;;;16.11;43.11;98583.06;4938450;28;114308;-91
2022/04/26 14:44:52;;;;;;;2.23;2.03;;;15.70;69.50;;;16.24;43.05;98579.06;4929514;28;113175;-91
2022/04/26 14:47:21;;;;;;;2.40;2.17;;;15.70;69.60;;;16.37;42.70;98584.59;4935846;28;123154;-91
2022/04/26 14:49:49;;;;;;;2.67;2.43;;;15.80;69.40;;;16.49;42.50;98578.94;4925415;28;122267;-93
2022/04/26 14:52:21;;;;;;;2.87;2.37;;;15.90;69.40;;;16.69;42.08;98580.69;4922635;28;112749;-92
2022/04/26 14:54:49;;;;;;;2.40;1.80;;;16.00;68.90;;;16.90;41.87;98576.84;4929098;28;113818;-90
2022/04/26 14:57:17;;;;;;;4.07;1.93;;;16.20;69.20;;;17.13;41.97;98577.81;4936768;28;122387;-91
2022/04/26 15:00:24;;;;;;;4.00;2.03;;;16.40;69.50;;;17.39;41.66;98582.84;4939228;28;123569;-91
2022/04/26 15:03:10;;;;;;;2.23;2.03;;;16.60;69.30;;;17.47;40.83;98595.00;4951662;28;113516;-91
2022/04/26 15:05:37;;;;;;;2.20;1.80;;;16.80;67.90;;;17.42;40.58;98589.69;4938289;28;114102;-90
2022/04/26 15:11:29;;;;;;;2.40;2.20;;;16.80;66.80;;;17.22;40.99;98595.22;4942135;28;123616;-91
2022/04/26 15:16:42;;;;;;;1.83;1.60;;;16.80;66.80;;;17.19;41.24;98587.56;4933839;28;113830;-91
2022/04/26 15:19:13;;;;;;;2.30;1.57;;;16.80;66.80;;;17.16;41.25;98588.25;4950622;28;122448;-92
2022/04/26 15:21:43;;;;;;;1.70;1.60;;;16.80;66.80;;;17.10;41.09;98586.94;4932571;28;122734;-91
2022/04/26 15:24:12;;;;;;;1.90;1.60;;;16.80;66.70;;;17.04;41.22;98591.16;4933520;28;114032;-89
2022/04/26 15:26:39;;;;;;;1.97;1.63;;;16.70;66.60;;;16.99;41.14;98602.59;4930609;28;114053;-90
2022/04/26 15:29:07;;;;;;;1.97;1.77;;;16.60;66.20;;;16.90;41.31;98593.59;4934428;28;123802;-90
2022/04/26 15:31:38;;;;;;;3.00;1.83;;;16.60;66.10;;;16.80;41.01;98599.72;4934133;28;122831;-91
2022/04/26 15:34:07;;;;;;;2.07;1.80;;;16.50;65.80;;;16.67;41.16;98602.53;4941913;28;114853;-90
2022/04/26 15:37:11;;;;;;;2.23;2.03;;;16.40;65.80;;;16.53;41.38;98600.19;4941657;28;113768;-93
2022/04/26 15:39:58;;;;;;;2.37;2.13;;;16.30;66.00;;;16.47;41.80;98614.72;4925005;28;122392;-91
2022/04/26 15:46:09;;;;;;;3.53;3.03;;;16.10;66.70;;;16.16;43.20;98624.63;4942365;28;114479;-93
2022/04/26 15:48:39;;;;;;;4.00;2.47;;;15.90;68.30;;;15.92;44.51;98628.31;4936617;28;113232;-93
2022/04/26 15:51:06;;;;;;;3.00;2.50;;;15.70;69.80;;;15.67;45.03;98645.03;4935382;28;123739;-92
2022/04/26 15:53:33;;;;;;;4.93;3.00;;;15.50;70.30;;;15.48;45.49;98649.59;4945944;28;122474;-92
2022/04/26 15:56:20;;;;;;;2.57;2.37;;;15.30;72.20;;;15.17;46.50;98649.00;4933724;28;113749;-91
2022/04/26 15:58:47;;;;;;;2.40;2.20;;;15.00;72.30;;;15.02;46.87;98641.34;4970842;28;112394;-92
2022/04/26 16:01:14;;;;;;;2.40;2.20;;;14.80;72.80;;;14.92;47.19;98639.81;4950478;28;123411;-92
2022/04/26 16:04:19;;;;;;;2.30;2.10;;;14.70;73.30;;;14.83;47.62;98641.06;4951609;28;123356;-91
2022/04/26 16:07:43;;;;;;;2.77;1.80;;;14.60;73.70;;;14.74;47.86;98643.94;4956045;28;113457;-91
2022/04/26 16:22:51;;;;;;;2.57;2.10;;;14.30;75.50;;;14.49;48.90;98656.94;4950382;28;115006;-90
2022/04/26 16:25:38;;;;;;;3.70;2.57;;;14.20;75.90;;;14.41;49.31;98660.59;4957174;28;122229;-86
2022/04/26 16:28:06;;;;;;;2.20;2.00;;;14.10;76.20;;;14.34;49.73;98669.47;4954929;28;124730;-92
2022/04/26 16:30:40;;;;;;;2.43;2.00;;;14.10;76.80;;;14.28;49.62;98668.88;4952307;28;115129;-91
2022/04/26 16:37:07;;;;;;;1.77;1.67;;;14.00;77.60;;;14.22;50.12;98684.13;4954662;28;124492;-92
2022/04/26 16:43:17;;;;;;;2.57;1.87;;;13.90;77.60;;;14.24;49.98;98683.78;4959589;28;114836;-92
2022/04/26 16:46:03;;;;;;;1.50;1.40;;;13.90;77.90;;;14.27;50.01;98681.16;4955578;28;113469;-93
2022/04/26 16:48:50;;;;;;;2.07;1.70;;;12.80;76.90;;;14.27;50.10;98680.34;4957566;28;124225;-91
2022/04/26 16:51:19;;;;;;;2.13;1.93;;;13.80;77.90;;;14.23;50.31;98684.94;4946390;28;123127;-91
2022/04/26 16:53:47;;;;;;;2.27;1.87;;;13.80;78.20;;;14.18;50.44;98685.97;4937319;28;115091;-90
2022/04/26 16:56:15;;;;;;;1.60;1.50;;;13.80;78.40;;;14.17;50.22;98684.34;4952002;28;113366;-91
2022/04/26 16:59:03;;;;;;;1.40;1.30;;;13.80;78.40;;;14.19;50.33;98686.81;4932276;28;122543;-90
2022/04/26 17:01:31;;;;;;;1.97;1.80;;;13.70;78.50;;;14.17;50.45;98691.88;4931028;28;124551;-92
2022/04/26 17:07:40;;;;;;;3.60;3.30;;;13.70;78.70;;;14.01;50.57;98686.91;4937404;28;114483;-92
2022/04/26 17:10:08;;;;;;;3.23;2.90;;;13.60;78.60;;;14.00;50.46;98682.53;4931734;28;123743;-91
2022/04/26 17:12:38;;;;;;;2.73;1.87;;;13.60;78.70;;;14.00;50.56;98699.19;4919609;28;121898;-92
2022/04/26 17:16:04;;;;;;;2.50;1.93;;;13.60;78.60;;;13.96;50.24;98701.00;4915297;28;114457;-92
2022/04/26 17:22:14;;;;;;;2.27;1.77;;;13.60;78.70;;;13.89;50.54;98706.28;4949730;28;125151;-91
2022/04/26 17:28:27;;;;;;;1.80;1.40;;;13.70;79.10;;;13.88;50.66;98712.97;4935749;28;116219;-91
2022/04/26 17:31:32;;;;;;;3.17;1.80;;;13.50;78.90;;;13.85;50.82;98699.78;4934969;28;116061;-92
2022/04/26 17:34:56;;;;;;;1.30;1.20;;;13.50;79.10;;;13.87;50.68;98709.41;4936120;28;124886;-91
2022/04/26 17:37:24;;;;;;;1.83;1.63;;;13.40;79.20;;;13.89;50.92;98700.75;4938353;28;123540;-91
2022/04/26 17:43:33;;;;;;;1.47;1.30;;;13.50;79.40;;;13.90;50.99;98716.25;4960330;28;115126;-91
2022/04/26 17:46:01;;;;;;;1.40;1.30;;;13.30;79.30;;;13.91;50.99;98721.44;4958337;28;123314;-91
2022/04/26 17:48:32;;;;;;;1.40;1.30;;;13.40;79.60;;;13.95;51.09;98727.16;4938152;28;123533;-91
2022/04/26 17:51:19;;;;;;;1.97;1.40;;;13.50;79.80;;;13.96;51.02;98722.41;4957078;28;114336;-90
2022/04/26 17:57:27;;;;;;;1.60;1.50;;;13.50;80.00;;;13.91;51.25;98727.00;4959097;28;124448;-90
2022/04/26 17:59:54;;;;;;;1.40;1.20;;;13.40;80.30;;;13.90;51.53;98728.16;4959517;28;126004;-90
2022/04/26 18:02:20;;;;;;;1.70;1.60;;;13.40;80.40;;;13.90;51.62;98727.34;4954468;28;114123;-91
2022/04/26 18:08:28;;;;;;;1.40;1.30;;;13.40;80.60;;;13.83;52.01;98747.31;4957779;28;125242;-90
2022/04/26 18:11:34;;;;;;;2.13;1.40;;;13.30;80.90;;;13.80;51.95;98744.41;4953275;28;122751;-92
2022/04/26 18:14:00;;;;;;;1.70;1.50;;;13.40;81.10;;;13.76;51.90;98741.50;4952894;28;114213;-91
2022/04/26 18:20:10;;;;;;;1.57;1.47;;;13.30;80.90;;;13.68;51.79;98750.69;4962018;28;125090;-92
2022/04/26 18:22:38;;;;;;;2.27;1.60;;;13.30;81.00;;;13.65;52.00;98751.34;4955094;28;122937;-89
2022/04/26 18:28:49;;;;;;;2.00;1.80;;;13.20;81.00;;;13.58;51.94;98751.84;4949669;28;115472;-88
2022/04/26 18:31:37;;;;;;;1.97;1.77;;;13.10;81.00;;;13.58;52.11;98773.25;4959911;28;124845;-84
2022/04/26 18:37:46;;;;;;;2.63;2.10;;;13.10;81.20;;;13.56;52.15;98779.13;4957417;28;115316;-89